TAF and METAR

METAR for Valhall PH

ENWV 020250Z AUTO 19006KT 130V210 9999NDV NCD 07/04 Q1020 W///S4
Report created 2. des 03:50
report generated by an automatic observation system. wind 6 knots from S (190°) Wind direction varies from SE to SSW visibility > 10km No cloud detected. Temperature 7° with dewpoint at 4° (Humidity 81.20%) Pressure 1020 hPa
No TAF available for Valhall PH
Valhall PH in Norway

Latest 5 airports